Time;durP1;ratioP1;P1;durP2;ratioP2;P2;SDS_P1;SDS_P2;PMS_P1;PMS_P2;Temp;Humidity;BMP_temperature;BMP_pressure;BME280_temperature;BME280_humidity;BME280_pressure;Samples;Min_cycle;Max_cycle;Signal;HPM_P1;HPM_P2
2022/01/17 00:00:19;;;;;;;8.57;6.97;;;;;;;;;;5057331;28;20197;-91
2022/01/17 00:02:48;;;;;;;9.13;7.00;;;;;;;;;;5042026;28;20202;-90
2022/01/17 00:05:16;;;;;;;7.93;6.70;;;;;;;;;;5051208;28;20233;-91
2022/01/17 00:07:49;;;;;;;8.03;7.10;;;;;;;;;;5044423;28;20207;-90
2022/01/17 00:10:22;;;;;;;8.33;7.37;;;;;;;;;;5052949;28;20243;-90
2022/01/17 00:12:52;;;;;;;8.17;6.83;;;;;;;;;;5045116;28;20232;-90
2022/01/17 00:15:25;;;;;;;7.87;6.17;;;;;;;;;;5050017;28;20209;-90
2022/01/17 00:18:08;;;;;;;7.60;6.80;;;;;;;;;;5032449;28;20205;-90
2022/01/17 00:20:36;;;;;;;8.10;6.90;;;;;;;;;;5045070;28;20221;-90
2022/01/17 00:23:03;;;;;;;7.67;6.90;;;;;;;;;;5036536;28;20198;-90
2022/01/17 00:25:31;;;;;;;8.57;6.90;;;;;;;;;;5047858;28;20207;-90
2022/01/17 00:28:02;;;;;;;7.67;6.87;;;;;;;;;;5049863;28;20211;-90
2022/01/17 00:30:31;;;;;;;8.93;7.27;;;;;;;;;;5051250;28;20205;-90
2022/01/17 00:32:59;;;;;;;8.43;7.57;;;;;;;;;;5040426;28;20225;-90
2022/01/17 00:35:27;;;;;;;9.60;7.40;;;;;;;;;;5071104;28;20604;-90
2022/01/17 00:37:55;;;;;;;10.03;7.87;;;;;;;;;;5069001;28;20260;-91
2022/01/17 00:40:23;;;;;;;10.23;8.77;;;;;;;;;;5051646;28;20208;-90
2022/01/17 00:42:54;;;;;;;10.33;8.50;;;;;;;;;;5052067;28;20197;-90
2022/01/17 00:45:27;;;;;;;10.87;8.70;;;;;;;;;;5046324;28;20197;-90
2022/01/17 00:47:56;;;;;;;10.83;9.50;;;;;;;;;;5041475;28;20202;-91
2022/01/17 00:50:24;;;;;;;11.50;9.67;;;;;;;;;;5035354;28;20205;-91
2022/01/17 00:52:51;;;;;;;13.33;9.80;;;;;;;;;;5053943;28;20218;-91
2022/01/17 00:55:21;;;;;;;16.33;12.03;;;;;;;;;;5040693;28;20198;-91
2022/01/17 00:57:49;;;;;;;15.23;12.30;;;;;;;;;;5052914;28;20223;-91
2022/01/17 01:00:16;;;;;;;19.37;13.63;;;;;;;;;;5070638;28;20224;-90
2022/01/17 01:02:44;;;;;;;18.80;13.73;;;;;;;;;;5061191;28;20190;-91
2022/01/17 01:05:20;;;;;;;20.30;14.87;;;;;;;;;;5041571;28;20228;-90
2022/01/17 01:07:48;;;;;;;19.43;14.67;;;;;;;;;;5052982;28;20208;-90
2022/01/17 01:10:15;;;;;;;20.20;14.40;;;;;;;;;;5037660;28;20222;-90
2022/01/17 01:12:44;;;;;;;23.47;15.57;;;;;;;;;;5037172;28;20221;-90
2022/01/17 01:15:19;;;;;;;22.33;15.27;;;;;;;;;;5036301;28;20202;-89
2022/01/17 01:17:52;;;;;;;20.27;15.07;;;;;;;;;;5036169;28;20229;-89
2022/01/17 01:20:45;;;;;;;21.20;15.37;;;;;;;;;;5038009;28;20228;-90
2022/01/17 01:28:47;;;;;;;21.30;15.27;;;;;;;;;;5049688;28;20197;-91
2022/01/17 01:31:29;;;;;;;21.07;15.20;;;;;;;;;;5040043;28;20221;-90
2022/01/17 01:34:03;;;;;;;21.77;15.37;;;;;;;;;;5035677;28;20277;-91
2022/01/17 01:36:33;;;;;;;19.63;14.80;;;;;;;;;;5035597;28;20210;-91
2022/01/17 01:39:01;;;;;;;17.30;14.27;;;;;;;;;;5035062;28;20206;-91
2022/01/17 01:41:30;;;;;;;20.33;15.03;;;;;;;;;;5051759;28;20236;-91
2022/01/17 01:44:12;;;;;;;18.50;14.60;;;;;;;;;;5055468;28;20207;-91
2022/01/17 01:46:40;;;;;;;21.63;14.90;;;;;;;;;;5040616;28;20276;-89
2022/01/17 01:49:07;;;;;;;19.17;14.07;;;;;;;;;;5055022;28;20212;-91
2022/01/17 01:51:39;;;;;;;23.80;15.47;;;;;;;;;;5048805;28;20218;-90
2022/01/17 01:54:07;;;;;;;19.33;15.10;;;;;;;;;;5054870;28;20224;-91
2022/01/17 01:56:38;;;;;;;22.03;15.20;;;;;;;;;;5053512;28;20340;-91
2022/01/17 01:59:10;;;;;;;19.40;15.13;;;;;;;;;;5056018;28;20210;-91
2022/01/17 02:01:39;;;;;;;20.33;14.90;;;;;;;;;;5052669;28;20221;-90
2022/01/17 02:06:50;;;;;;;20.73;14.27;;;;;;;;;;5042362;28;20202;-91
2022/01/17 02:09:26;;;;;;;19.50;14.77;;;;;;;;;;5035795;28;20225;-90
2022/01/17 02:11:54;;;;;;;19.23;14.47;;;;;;;;;;5049343;28;20217;-90
2022/01/17 02:14:27;;;;;;;20.73;15.27;;;;;;;;;;5058605;28;20200;-92
2022/01/17 02:16:56;;;;;;;19.47;14.97;;;;;;;;;;5076816;28;20241;-92
2022/01/17 02:19:28;;;;;;;21.07;15.37;;;;;;;;;;5078093;28;20213;-91
2022/01/17 02:21:58;;;;;;;20.23;14.73;;;;;;;;;;5055591;28;20214;-91
2022/01/17 02:24:27;;;;;;;20.67;15.10;;;;;;;;;;5045897;28;20200;-91
2022/01/17 02:26:56;;;;;;;22.73;15.33;;;;;;;;;;5052070;28;20266;-91
2022/01/17 02:29:23;;;;;;;21.97;15.63;;;;;;;;;;5036045;28;20218;-90
2022/01/17 02:31:51;;;;;;;21.33;15.10;;;;;;;;;;5039088;28;20274;-90
2022/01/17 02:34:18;;;;;;;20.33;15.13;;;;;;;;;;5040115;28;20280;-90
2022/01/17 02:36:46;;;;;;;18.63;13.80;;;;;;;;;;5050934;28;20239;-88
2022/01/17 02:39:17;;;;;;;20.97;14.13;;;;;;;;;;5053391;28;20197;-90
2022/01/17 02:41:49;;;;;;;19.97;14.60;;;;;;;;;;5053679;28;20251;-90
2022/01/17 02:44:16;;;;;;;19.90;14.13;;;;;;;;;;5037813;28;20201;-90
2022/01/17 02:46:44;;;;;;;19.60;14.10;;;;;;;;;;5037496;28;20252;-91
2022/01/17 02:49:11;;;;;;;16.20;12.80;;;;;;;;;;5035427;28;20228;-91
2022/01/17 02:51:40;;;;;;;16.17;12.53;;;;;;;;;;5043687;28;20208;-90
2022/01/17 02:54:07;;;;;;;19.07;13.67;;;;;;;;;;5055221;28;20225;-90
2022/01/17 02:56:36;;;;;;;15.77;12.27;;;;;;;;;;5069021;28;20202;-88
2022/01/17 02:59:03;;;;;;;17.93;12.97;;;;;;;;;;5047552;28;20194;-90
2022/01/17 03:01:31;;;;;;;18.23;13.27;;;;;;;;;;5047608;28;20309;-89
2022/01/17 03:03:59;;;;;;;18.20;13.27;;;;;;;;;;5042108;28;20204;-90
2022/01/17 03:06:27;;;;;;;17.43;13.10;;;;;;;;;;5035508;28;20287;-91
2022/01/17 03:08:54;;;;;;;17.07;12.73;;;;;;;;;;5034572;28;20208;-89
2022/01/17 03:11:23;;;;;;;17.10;13.63;;;;;;;;;;5038231;28;20237;-90
2022/01/17 03:13:54;;;;;;;18.90;14.80;;;;;;;;;;5047217;28;20279;-89
2022/01/17 03:16:29;;;;;;;19.57;14.73;;;;;;;;;;5034728;28;20236;-89
2022/01/17 03:18:56;;;;;;;19.53;14.73;;;;;;;;;;5047611;28;20196;-89
2022/01/17 03:21:27;;;;;;;23.17;15.70;;;;;;;;;;5053492;28;20221;-89
2022/01/17 03:23:54;;;;;;;20.57;15.43;;;;;;;;;;5054593;28;20197;-90
2022/01/17 03:26:21;;;;;;;23.57;16.30;;;;;;;;;;5043480;28;20213;-89
2022/01/17 03:28:49;;;;;;;22.23;16.17;;;;;;;;;;5032836;28;20191;-89
2022/01/17 03:31:19;;;;;;;20.50;16.40;;;;;;;;;;5050083;28;20221;-90
2022/01/17 03:33:47;;;;;;;23.97;17.50;;;;;;;;;;5052603;28;20221;-90
2022/01/17 03:36:14;;;;;;;26.27;17.60;;;;;;;;;;5035915;28;20198;-90
2022/01/17 03:38:42;;;;;;;24.47;18.07;;;;;;;;;;5032676;28;20284;-91
2022/01/17 03:41:13;;;;;;;22.07;17.57;;;;;;;;;;5032533;28;20230;-91
2022/01/17 03:43:40;;;;;;;25.43;18.07;;;;;;;;;;5038730;28;20215;-91
2022/01/17 03:46:08;;;;;;;28.03;19.27;;;;;;;;;;5052158;28;20197;-90
2022/01/17 03:48:39;;;;;;;26.23;19.20;;;;;;;;;;5051239;28;20197;-90
2022/01/17 03:51:07;;;;;;;25.63;18.40;;;;;;;;;;5051793;28;20217;-90
2022/01/17 03:53:36;;;;;;;25.83;18.70;;;;;;;;;;5051722;28;20217;-90
2022/01/17 03:56:04;;;;;;;27.37;19.00;;;;;;;;;;5051472;28;20208;-90
2022/01/17 03:58:31;;;;;;;24.70;17.80;;;;;;;;;;5048030;28;20198;-91
2022/01/17 04:00:59;;;;;;;25.70;18.67;;;;;;;;;;5046023;28;20217;-90
2022/01/17 04:03:32;;;;;;;25.90;18.40;;;;;;;;;;5051460;28;20190;-91
2022/01/17 04:06:01;;;;;;;28.03;19.53;;;;;;;;;;5053010;28;20208;-90
2022/01/17 04:08:28;;;;;;;28.47;19.23;;;;;;;;;;5052230;28;20284;-91
2022/01/17 04:10:58;;;;;;;24.67;18.70;;;;;;;;;;5052631;28;20274;-90
2022/01/17 04:13:25;;;;;;;24.77;18.87;;;;;;;;;;5047044;28;20308;-90
2022/01/17 04:15:53;;;;;;;22.97;17.47;;;;;;;;;;5037938;28;20194;-90
2022/01/17 04:18:23;;;;;;;23.67;16.93;;;;;;;;;;5037743;28;20212;-90
2022/01/17 04:20:51;;;;;;;27.00;18.87;;;;;;;;;;5051271;28;20221;-90
2022/01/17 04:23:20;;;;;;;23.10;17.07;;;;;;;;;;5051360;28;20228;-90
2022/01/17 04:25:48;;;;;;;20.93;15.90;;;;;;;;;;5035961;28;20206;-89
2022/01/17 04:28:15;;;;;;;21.87;16.57;;;;;;;;;;5043621;28;20197;-90
2022/01/17 04:33:13;;;;;;;20.63;15.73;;;;;;;;;;5030682;28;20222;-83
2022/01/17 04:35:41;;;;;;;22.73;15.97;;;;;;;;;;5033122;28;20198;-85
2022/01/17 04:38:10;;;;;;;21.40;16.17;;;;;;;;;;5032102;28;20197;-86
2022/01/17 04:40:39;;;;;;;20.60;15.30;;;;;;;;;;5033210;28;20226;-85
2022/01/17 04:43:14;;;;;;;21.60;15.53;;;;;;;;;;5032562;28;20248;-86
2022/01/17 04:45:41;;;;;;;21.53;16.07;;;;;;;;;;5018751;28;20201;-84
2022/01/17 04:48:09;;;;;;;21.97;16.40;;;;;;;;;;5032036;28;20194;-87
2022/01/17 04:50:37;;;;;;;19.33;15.73;;;;;;;;;;5032808;28;20209;-86
2022/01/17 04:53:04;;;;;;;21.13;16.37;;;;;;;;;;5032125;28;20214;-87
2022/01/17 04:55:32;;;;;;;21.57;15.90;;;;;;;;;;5032973;28;20221;-87
2022/01/17 04:58:00;;;;;;;20.33;14.23;;;;;;;;;;5031988;28;20247;-87
2022/01/17 05:00:28;;;;;;;17.70;13.80;;;;;;;;;;5032466;28;20255;-86
2022/01/17 05:02:56;;;;;;;16.70;13.40;;;;;;;;;;5033327;28;20214;-86
2022/01/17 05:05:24;;;;;;;19.73;13.47;;;;;;;;;;5033075;28;20198;-86
2022/01/17 05:07:52;;;;;;;18.47;13.17;;;;;;;;;;5032384;28;20198;-86
2022/01/17 05:10:21;;;;;;;13.10;11.03;;;;;;;;;;5032855;28;20198;-89
2022/01/17 05:12:48;;;;;;;16.27;11.80;;;;;;;;;;5032160;28;20301;-87
2022/01/17 05:15:25;;;;;;;14.00;11.10;;;;;;;;;;5032355;28;20198;-86
2022/01/17 05:18:12;;;;;;;12.87;10.27;;;;;;;;;;5040442;28;20182;-87
2022/01/17 05:20:39;;;;;;;11.23;9.80;;;;;;;;;;5055270;28;20212;-87
2022/01/17 05:23:06;;;;;;;15.87;10.10;;;;;;;;;;5055115;28;20178;-88
2022/01/17 05:25:34;;;;;;;13.00;10.37;;;;;;;;;;5055892;28;20186;-88
2022/01/17 05:28:01;;;;;;;13.67;9.53;;;;;;;;;;5053964;28;20181;-84
2022/01/17 05:30:30;;;;;;;15.37;10.43;;;;;;;;;;5054347;28;20213;-87
2022/01/17 05:32:58;;;;;;;11.43;9.77;;;;;;;;;;5036143;28;20218;-87
2022/01/17 05:35:25;;;;;;;11.97;9.23;;;;;;;;;;5048885;28;20182;-86
2022/01/17 05:37:53;;;;;;;12.87;9.73;;;;;;;;;;5057236;28;20213;-87
2022/01/17 05:40:20;;;;;;;12.40;9.37;;;;;;;;;;5059947;28;20186;-86
2022/01/17 05:42:48;;;;;;;12.10;9.90;;;;;;;;;;5059306;28;20236;-86
2022/01/17 05:45:16;;;;;;;12.17;9.47;;;;;;;;;;5060230;28;20178;-86
2022/01/17 05:47:45;;;;;;;13.27;9.57;;;;;;;;;;5056682;28;20224;-84
2022/01/17 05:50:13;;;;;;;11.47;9.27;;;;;;;;;;5056831;28;20208;-85
2022/01/17 05:52:40;;;;;;;11.73;9.33;;;;;;;;;;5049554;28;20248;-83
2022/01/17 05:55:09;;;;;;;11.40;9.07;;;;;;;;;;5038442;28;20295;-84
2022/01/17 05:57:36;;;;;;;10.87;9.27;;;;;;;;;;5039537;28;20202;-85
2022/01/17 06:00:05;;;;;;;11.63;8.73;;;;;;;;;;5037966;28;20194;-84
2022/01/17 06:02:32;;;;;;;10.23;8.23;;;;;;;;;;5036771;28;20232;-86
2022/01/17 06:05:01;;;;;;;11.63;8.80;;;;;;;;;;5035974;28;20193;-84
2022/01/17 06:07:28;;;;;;;12.73;9.20;;;;;;;;;;5036345;28;20232;-85
2022/01/17 06:09:56;;;;;;;10.83;8.57;;;;;;;;;;5037788;28;20289;-84
2022/01/17 06:12:23;;;;;;;10.60;8.40;;;;;;;;;;5043472;28;20218;-85
2022/01/17 06:14:51;;;;;;;9.60;7.73;;;;;;;;;;5036027;28;20222;-85
2022/01/17 06:17:18;;;;;;;11.77;9.10;;;;;;;;;;5037131;28;20214;-84
2022/01/17 06:19:45;;;;;;;9.20;8.20;;;;;;;;;;5034966;28;20289;-85
2022/01/17 06:22:14;;;;;;;10.80;8.43;;;;;;;;;;5037624;28;20244;-84
2022/01/17 06:24:41;;;;;;;10.40;8.07;;;;;;;;;;5036378;28;20228;-83
2022/01/17 06:27:09;;;;;;;9.67;7.77;;;;;;;;;;5035687;28;20232;-85
2022/01/17 06:29:36;;;;;;;8.80;7.47;;;;;;;;;;5038511;28;20197;-85
2022/01/17 06:32:04;;;;;;;10.73;8.43;;;;;;;;;;5037790;28;20241;-86
2022/01/17 06:34:32;;;;;;;9.93;8.27;;;;;;;;;;5036752;28;20243;-84
2022/01/17 06:36:59;;;;;;;10.13;8.20;;;;;;;;;;5043356;28;20206;-85
2022/01/17 06:39:31;;;;;;;11.10;8.50;;;;;;;;;;5041795;28;20248;-86
2022/01/17 06:42:00;;;;;;;10.07;8.43;;;;;;;;;;5035593;28;20251;-84
2022/01/17 06:44:28;;;;;;;9.97;8.27;;;;;;;;;;5035213;28;20252;-89
2022/01/17 06:47:14;;;;;;;;;;;;;;;;;;;;;
2022/01/17 06:49:42;;;;;;;8.50;7.60;;;;;;;;;;5038834;28;20190;-88
2022/01/17 06:52:09;;;;;;;10.50;8.53;;;;;;;;;;5034676;28;20291;-87
2022/01/17 06:54:38;;;;;;;8.60;7.70;;;;;;;;;;5038895;28;20213;-86
2022/01/17 06:57:06;;;;;;;9.63;7.63;;;;;;;;;;5021276;28;20289;-87
2022/01/17 06:59:33;;;;;;;8.30;7.50;;;;;;;;;;5037557;28;20228;-86
2022/01/17 07:02:05;;;;;;;9.27;7.57;;;;;;;;;;5039468;28;20637;-89
2022/01/17 07:04:42;;;;;;;8.57;7.43;;;;;;;;;;5022054;28;20289;-87
2022/01/17 07:07:14;;;;;;;9.77;7.60;;;;;;;;;;5035168;28;20209;-90
2022/01/17 07:09:49;;;;;;;8.13;7.33;;;;;;;;;;5040064;28;20289;-88
2022/01/17 07:12:18;;;;;;;8.30;7.03;;;;;;;;;;5047634;28;20241;-87
2022/01/17 07:14:45;;;;;;;8.60;7.50;;;;;;;;;;5044949;28;20244;-86
2022/01/17 07:17:13;;;;;;;8.90;7.23;;;;;;;;;;5048519;28;20210;-87
2022/01/17 07:19:41;;;;;;;8.57;6.60;;;;;;;;;;5052363;28;20190;-90
2022/01/17 07:22:09;;;;;;;7.87;6.50;;;;;;;;;;5053575;28;20240;-88
2022/01/17 07:24:48;;;;;;;6.97;6.13;;;;;;;;;;5050145;28;20227;-90
2022/01/17 07:27:16;;;;;;;7.70;6.37;;;;;;;;;;5051897;28;20204;-89
2022/01/17 07:29:44;;;;;;;7.10;6.40;;;;;;;;;;5043158;28;20198;-88
2022/01/17 07:32:11;;;;;;;6.97;5.97;;;;;;;;;;5034066;28;20226;-85
2022/01/17 07:34:39;;;;;;;8.93;6.33;;;;;;;;;;5036127;28;20222;-86
2022/01/17 07:37:06;;;;;;;6.40;5.80;;;;;;;;;;5034331;28;20198;-87
2022/01/17 07:39:34;;;;;;;6.80;6.10;;;;;;;;;;5037149;28;20202;-84
2022/01/17 07:42:01;;;;;;;6.40;5.80;;;;;;;;;;5036032;28;20214;-89
2022/01/17 07:44:31;;;;;;;6.83;6.17;;;;;;;;;;5018032;28;20241;-86
2022/01/17 07:47:01;;;;;;;6.77;6.07;;;;;;;;;;5036287;28;20209;-84
2022/01/17 07:49:28;;;;;;;6.70;5.90;;;;;;;;;;5038131;28;20289;-85
2022/01/17 07:51:59;;;;;;;6.67;5.67;;;;;;;;;;5038824;28;20222;-85
2022/01/17 07:54:27;;;;;;;6.47;4.73;;;;;;;;;;5039257;28;20221;-85
2022/01/17 07:56:54;;;;;;;4.97;4.47;;;;;;;;;;5038856;28;20260;-83
2022/01/17 07:59:22;;;;;;;5.83;4.90;;;;;;;;;;5037830;28;20202;-85
2022/01/17 08:01:50;;;;;;;5.60;4.90;;;;;;;;;;5038487;28;20225;-85
2022/01/17 08:04:18;;;;;;;6.03;5.30;;;;;;;;;;5039471;28;20255;-83
2022/01/17 08:06:46;;;;;;;5.67;5.07;;;;;;;;;;5038471;28;20208;-83
2022/01/17 08:09:15;;;;;;;5.63;5.03;;;;;;;;;;5033073;28;20202;-85
2022/01/17 08:11:42;;;;;;;5.30;4.77;;;;;;;;;;5040648;28;20221;-85
2022/01/17 08:14:10;;;;;;;5.37;4.63;;;;;;;;;;5031368;28;20218;-85
2022/01/17 08:16:37;;;;;;;5.10;4.53;;;;;;;;;;5037053;28;20198;-83
2022/01/17 08:19:06;;;;;;;6.97;5.20;;;;;;;;;;5035478;28;20207;-85
2022/01/17 08:21:33;;;;;;;5.60;5.10;;;;;;;;;;5037806;28;20276;-85
2022/01/17 08:24:01;;;;;;;5.47;4.97;;;;;;;;;;5023762;28;20204;-86
2022/01/17 08:26:29;;;;;;;5.60;5.10;;;;;;;;;;5017339;28;20209;-85
2022/01/17 08:28:56;;;;;;;5.57;4.63;;;;;;;;;;5027067;28;20197;-82
2022/01/17 08:31:23;;;;;;;5.87;5.37;;;;;;;;;;5039077;28;20233;-83
2022/01/17 08:33:51;;;;;;;5.97;5.40;;;;;;;;;;5038167;28;20237;-84
2022/01/17 08:36:20;;;;;;;6.17;5.33;;;;;;;;;;5038125;28;20277;-83
2022/01/17 08:38:47;;;;;;;5.13;4.60;;;;;;;;;;5028968;28;20245;-81
2022/01/17 08:41:16;;;;;;;5.50;5.00;;;;;;;;;;5019245;28;20234;-83
2022/01/17 08:43:43;;;;;;;5.30;4.50;;;;;;;;;;5019557;28;20297;-85
2022/01/17 08:46:10;;;;;;;4.83;4.43;;;;;;;;;;5025424;28;20352;-82
2022/01/17 08:48:39;;;;;;;5.60;5.10;;;;;;;;;;5035936;28;20198;-85
2022/01/17 08:51:07;;;;;;;5.80;4.80;;;;;;;;;;5037848;28;20210;-85
2022/01/17 08:53:36;;;;;;;5.10;4.60;;;;;;;;;;5036638;28;20285;-85
2022/01/17 08:56:04;;;;;;;6.77;5.00;;;;;;;;;;5018044;28;20222;-84
2022/01/17 08:58:31;;;;;;;5.17;4.63;;;;;;;;;;5015601;28;20211;-84
2022/01/17 09:00:59;;;;;;;5.40;4.90;;;;;;;;;;5016445;28;20280;-84
2022/01/17 09:03:27;;;;;;;5.27;4.77;;;;;;;;;;5016021;28;20265;-84
2022/01/17 09:05:55;;;;;;;4.87;4.20;;;;;;;;;;5018254;28;20206;-84
2022/01/17 09:08:22;;;;;;;4.73;4.10;;;;;;;;;;5027840;28;20210;-83
2022/01/17 09:10:54;;;;;;;4.67;4.17;;;;;;;;;;5034798;28;20209;-83
2022/01/17 09:13:21;;;;;;;5.90;3.97;;;;;;;;;;5037987;28;20209;-85
2022/01/17 09:15:49;;;;;;;4.33;4.03;;;;;;;;;;5038629;28;20275;-84
2022/01/17 09:18:17;;;;;;;4.20;3.80;;;;;;;;;;5038397;28;20194;-84
2022/01/17 09:20:44;;;;;;;4.47;4.07;;;;;;;;;;5037864;28;20637;-87
2022/01/17 09:23:12;;;;;;;4.50;4.10;;;;;;;;;;5039061;28;20237;-85
2022/01/17 09:25:39;;;;;;;4.47;4.07;;;;;;;;;;5039524;28;20198;-85
2022/01/17 09:28:08;;;;;;;4.13;3.73;;;;;;;;;;5038394;28;20209;-86
2022/01/17 09:30:36;;;;;;;4.03;3.70;;;;;;;;;;5039399;28;20201;-87
2022/01/17 09:33:05;;;;;;;4.00;3.60;;;;;;;;;;5039646;28;20263;-85
2022/01/17 09:35:33;;;;;;;4.13;3.70;;;;;;;;;;5039133;28;20301;-87
2022/01/17 09:38:01;;;;;;;3.77;3.47;;;;;;;;;;5037524;28;20309;-88
2022/01/17 09:40:28;;;;;;;4.60;4.10;;;;;;;;;;5038649;28;20259;-86
2022/01/17 09:42:58;;;;;;;4.03;3.47;;;;;;;;;;5035672;28;20229;-87
2022/01/17 09:45:27;;;;;;;3.87;2.90;;;;;;;;;;5035710;28;20201;-85
2022/01/17 09:47:57;;;;;;;3.27;2.97;;;;;;;;;;5036082;28;20198;-87
2022/01/17 09:50:33;;;;;;;3.87;2.83;;;;;;;;;;5028789;28;20200;-86
2022/01/17 09:53:01;;;;;;;3.70;3.40;;;;;;;;;;5028686;28;20220;-87
2022/01/17 09:58:42;;;;;;;3.47;3.17;;;;;;;;;;5017279;28;20273;-88
2022/01/17 10:01:11;;;;;;;3.30;3.00;;;;;;;;;;5033331;28;20226;-85
2022/01/17 10:03:39;;;;;;;3.20;2.90;;;;;;;;;;5023704;28;20210;-88
2022/01/17 10:06:06;;;;;;;4.07;3.10;;;;;;;;;;5034780;28;20193;-86
2022/01/17 10:08:34;;;;;;;3.50;2.90;;;;;;;;;;5035181;28;20198;-87
2022/01/17 10:11:12;;;;;;;3.70;3.10;;;;;;;;;;5035273;28;20241;-87
2022/01/17 10:13:42;;;;;;;2.80;2.60;;;;;;;;;;5020196;28;20202;-85
2022/01/17 10:16:14;;;;;;;2.90;2.70;;;;;;;;;;5021067;28;20358;-84
2022/01/17 10:18:48;;;;;;;3.10;2.90;;;;;;;;;;5026437;28;20726;-84
2022/01/17 10:21:20;;;;;;;3.30;2.97;;;;;;;;;;5019174;28;20222;-83
2022/01/17 10:24:11;;;;;;;5.70;5.10;;;;;;;;;;5029270;28;20194;-87
2022/01/17 10:35:10;;;;;;;5.10;4.60;;;;;;;;;;5077260;22;20227;-83
2022/01/17 10:37:37;;;;;;;5.60;5.10;;;;;;;;;;5070559;28;20193;-80
2022/01/17 10:40:06;;;;;;;5.37;4.77;;;;;;;;;;5078453;28;20215;-83
2022/01/17 10:42:35;;;;;;;5.47;5.03;;;;;;;;;;5078759;28;20219;-83
2022/01/17 10:45:07;;;;;;;5.07;4.57;;;;;;;;;;5060507;28;20213;-82
2022/01/17 10:47:39;;;;;;;4.73;4.10;;;;;;;;;;5055222;28;20604;-80
2022/01/17 10:50:12;;;;;;;5.13;4.63;;;;;;;;;;5057766;28;20304;-82
2022/01/17 10:52:40;;;;;;;5.17;4.67;;;;;;;;;;5057990;28;20204;-83
2022/01/17 10:55:13;;;;;;;6.33;5.73;;;;;;;;;;5058488;28;20218;-84
2022/01/17 10:57:41;;;;;;;6.23;5.70;;;;;;;;;;5056762;28;20231;-83
2022/01/17 11:00:13;;;;;;;6.40;5.80;;;;;;;;;;5056600;28;20202;-83
2022/01/17 11:02:44;;;;;;;6.83;6.10;;;;;;;;;;5056682;28;20224;-81
2022/01/17 11:05:13;;;;;;;7.53;6.20;;;;;;;;;;5057217;28;20248;-82
2022/01/17 11:07:41;;;;;;;5.90;5.37;;;;;;;;;;5055563;28;20205;-85
2022/01/17 11:10:14;;;;;;;6.70;6.10;;;;;;;;;;5058321;28;20204;-84
2022/01/17 11:12:41;;;;;;;6.70;6.00;;;;;;;;;;5057652;28;20271;-82
2022/01/17 11:15:09;;;;;;;6.53;5.83;;;;;;;;;;5058129;28;20237;-86
2022/01/17 11:17:38;;;;;;;7.20;5.93;;;;;;;;;;5056787;28;20189;-84
2022/01/17 11:20:09;;;;;;;6.80;6.10;;;;;;;;;;5057527;28;20206;-83
2022/01/17 11:22:37;;;;;;;6.03;5.43;;;;;;;;;;5057661;28;20203;-82
2022/01/17 11:25:20;;;;;;;6.20;5.60;;;;;;;;;;5058653;28;20323;-87
2022/01/17 11:27:48;;;;;;;6.17;5.57;;;;;;;;;;5061441;28;20193;-82
2022/01/17 11:30:16;;;;;;;6.23;5.63;;;;;;;;;;5060419;28;20239;-84
2022/01/17 11:32:44;;;;;;;5.60;5.10;;;;;;;;;;5058381;28;20675;-84
2022/01/17 11:35:14;;;;;;;5.43;4.93;;;;;;;;;;5056805;28;20227;-84
2022/01/17 11:37:43;;;;;;;4.67;4.27;;;;;;;;;;5057139;28;20197;-87
2022/01/17 11:40:12;;;;;;;5.00;4.50;;;;;;;;;;5059676;28;20213;-83
2022/01/17 11:42:41;;;;;;;4.80;4.30;;;;;;;;;;5069290;28;20193;-83
2022/01/17 11:45:27;;;;;;;4.60;4.20;;;;;;;;;;5065246;28;20225;-85
2022/01/17 11:47:55;;;;;;;4.90;4.40;;;;;;;;;;5077153;28;20193;-83
2022/01/17 11:50:34;;;;;;;4.53;4.13;;;;;;;;;;5087081;28;20200;-82
2022/01/17 11:53:02;;;;;;;4.97;4.57;;;;;;;;;;5036067;28;20208;-86
2022/01/17 11:55:45;;;;;;;5.03;4.60;;;;;;;;;;5043214;28;20221;-84
2022/01/17 11:58:19;;;;;;;4.60;4.20;;;;;;;;;;5054655;28;20197;-84
2022/01/17 12:00:46;;;;;;;5.70;4.57;;;;;;;;;;5055616;28;20243;-85
2022/01/17 12:03:18;;;;;;;4.93;4.43;;;;;;;;;;5038015;28;20583;-83
2022/01/17 12:05:47;;;;;;;4.90;4.50;;;;;;;;;;5042938;28;20190;-81
2022/01/17 12:08:19;;;;;;;5.20;4.70;;;;;;;;;;5057026;28;20205;-82
2022/01/17 12:10:51;;;;;;;5.73;5.10;;;;;;;;;;5056861;28;20251;-83
2022/01/17 12:13:41;;;;;;;4.80;4.37;;;;;;;;;;5056320;28;20225;-85
2022/01/17 12:16:16;;;;;;;4.80;4.30;;;;;;;;;;5054921;28;20213;-84
2022/01/17 12:18:44;;;;;;;4.90;4.40;;;;;;;;;;5056878;28;20200;-81
2022/01/17 12:21:28;;;;;;;6.10;4.67;;;;;;;;;;5057830;28;20235;-84
2022/01/17 12:24:30;;;;;;;5.33;4.83;;;;;;;;;;5057918;28;20231;-82
2022/01/17 12:27:08;;;;;;;5.27;4.77;;;;;;;;;;5037481;28;20255;-84
2022/01/17 12:29:37;;;;;;;5.67;5.10;;;;;;;;;;5035689;28;20217;-83
2022/01/17 12:32:05;;;;;;;5.57;5.07;;;;;;;;;;5023389;28;20225;-83
2022/01/17 12:34:40;;;;;;;5.60;4.77;;;;;;;;;;5024887;28;20224;-83
2022/01/17 12:37:30;;;;;;;5.73;4.67;;;;;;;;;;5036675;28;20244;-85
2022/01/17 12:40:11;;;;;;;5.83;5.13;;;;;;;;;;5015380;28;20210;-85
2022/01/17 12:42:49;;;;;;;6.63;5.97;;;;;;;;;;5013095;28;20210;-85
2022/01/17 12:45:19;;;;;;;5.20;4.63;;;;;;;;;;5036999;28;20315;-85
2022/01/17 12:47:47;;;;;;;4.80;4.40;;;;;;;;;;5033078;28;20202;-83
2022/01/17 12:50:14;;;;;;;5.90;4.73;;;;;;;;;;5035601;28;20293;-85
2022/01/17 12:52:43;;;;;;;7.47;5.60;;;;;;;;;;5044440;28;20264;-84
2022/01/17 12:55:11;;;;;;;5.20;4.70;;;;;;;;;;5032434;28;20214;-82
2022/01/17 12:57:43;;;;;;;4.37;3.97;;;;;;;;;;5033425;28;20209;-85
2022/01/17 13:00:11;;;;;;;5.30;4.53;;;;;;;;;;5044597;28;20209;-84
2022/01/17 13:02:47;;;;;;;5.17;4.67;;;;;;;;;;5039855;28;20249;-84
2022/01/17 13:05:14;;;;;;;5.63;4.70;;;;;;;;;;5042210;28;20293;-85
2022/01/17 13:07:44;;;;;;;4.90;4.40;;;;;;;;;;5041535;28;20206;-83
2022/01/17 13:10:12;;;;;;;6.60;4.63;;;;;;;;;;5041351;28;20202;-85
2022/01/17 13:12:41;;;;;;;6.33;4.60;;;;;;;;;;5045902;28;20197;-86
2022/01/17 13:15:12;;;;;;;5.17;4.50;;;;;;;;;;5045667;28;20213;-83
2022/01/17 13:17:40;;;;;;;5.50;4.40;;;;;;;;;;5057158;28;20241;-83
2022/01/17 13:20:08;;;;;;;6.50;4.57;;;;;;;;;;5057888;28;20721;-85
2022/01/17 13:22:59;;;;;;;4.40;3.97;;;;;;;;;;5038165;28;20778;-87
2022/01/17 13:25:27;;;;;;;5.27;4.47;;;;;;;;;;5039877;28;20213;-81
2022/01/17 13:27:56;;;;;;;7.40;6.37;;;;;;;;;;5038043;28;20221;-84
2022/01/17 13:30:23;;;;;;;8.13;5.93;;;;;;;;;;5058069;28;20200;-87
2022/01/17 13:32:51;;;;;;;5.40;3.90;;;;;;;;;;5047734;28;20567;-87
2022/01/17 13:35:22;;;;;;;5.43;4.03;;;;;;;;;;5040806;28;20237;-85
2022/01/17 13:37:52;;;;;;;4.87;3.80;;;;;;;;;;5051044;28;20261;-84
2022/01/17 13:40:21;;;;;;;4.37;3.70;;;;;;;;;;5054511;28;20280;-84
2022/01/17 13:42:52;;;;;;;4.40;4.00;;;;;;;;;;5045949;28;20219;-84
2022/01/17 13:45:46;;;;;;;7.53;3.93;;;;;;;;;;5057265;28;20206;-84
2022/01/17 13:48:15;;;;;;;4.70;3.87;;;;;;;;;;5010482;28;20205;-87
2022/01/17 13:50:47;;;;;;;4.00;3.30;;;;;;;;;;5056819;28;20202;-82
2022/01/17 13:53:17;;;;;;;4.10;3.70;;;;;;;;;;5044746;28;20264;-82
2022/01/17 13:55:45;;;;;;;4.27;3.40;;;;;;;;;;5052590;28;20205;-83
2022/01/17 13:58:17;;;;;;;4.20;3.20;;;;;;;;;;5048868;28;20223;-83
2022/01/17 14:00:46;;;;;;;3.90;3.33;;;;;;;;;;5053670;28;20205;-84
2022/01/17 14:03:15;;;;;;;4.17;3.60;;;;;;;;;;5051365;28;20242;-84
2022/01/17 14:05:44;;;;;;;4.17;3.47;;;;;;;;;;5052237;28;20200;-84
2022/01/17 14:08:20;;;;;;;4.87;3.53;;;;;;;;;;5056479;28;20209;-84
2022/01/17 14:11:01;;;;;;;5.80;3.40;;;;;;;;;;5070436;28;20209;-85
2022/01/17 14:13:33;;;;;;;5.20;3.23;;;;;;;;;;5059880;28;20229;-82
2022/01/17 14:16:20;;;;;;;4.50;3.40;;;;;;;;;;5052527;28;20252;-85
2022/01/17 14:18:48;;;;;;;3.20;2.90;;;;;;;;;;5049789;28;20269;-83
2022/01/17 14:21:23;;;;;;;4.20;2.77;;;;;;;;;;5053452;28;20250;-84
2022/01/17 14:24:04;;;;;;;5.13;3.20;;;;;;;;;;5050795;28;20219;-83
2022/01/17 14:26:32;;;;;;;4.57;3.23;;;;;;;;;;5055527;28;20209;-83
2022/01/17 14:28:59;;;;;;;4.03;2.97;;;;;;;;;;5055168;28;20250;-84
2022/01/17 14:31:32;;;;;;;4.73;3.43;;;;;;;;;;5051567;28;20178;-85
2022/01/17 14:34:08;;;;;;;5.47;3.30;;;;;;;;;;5067934;28;20251;-84
2022/01/17 14:36:36;;;;;;;4.50;2.97;;;;;;;;;;5071734;28;20221;-82
2022/01/17 14:39:06;;;;;;;4.77;3.10;;;;;;;;;;5067493;28;20197;-82
2022/01/17 14:41:38;;;;;;;3.63;3.33;;;;;;;;;;5060087;28;20225;-81
2022/01/17 14:44:06;;;;;;;5.93;3.83;;;;;;;;;;5060279;28;20315;-81
2022/01/17 14:46:34;;;;;;;4.20;3.67;;;;;;;;;;5075653;28;20212;-84
2022/01/17 14:49:03;;;;;;;4.30;3.90;;;;;;;;;;5078954;28;20208;-84
2022/01/17 14:51:34;;;;;;;4.43;3.80;;;;;;;;;;5070913;28;20217;-84
2022/01/17 14:54:09;;;;;;;4.67;4.13;;;;;;;;;;5074359;28;20220;-83
2022/01/17 15:02:11;;;;;;;4.33;3.40;;;;;;;;;;5051738;28;20269;-84
2022/01/17 15:04:40;;;;;;;4.67;3.90;;;;;;;;;;5065192;28;20224;-83
2022/01/17 15:07:09;;;;;;;4.57;4.10;;;;;;;;;;5076219;28;20213;-84
2022/01/17 15:09:39;;;;;;;4.73;4.23;;;;;;;;;;5076010;28;20196;-83
2022/01/17 15:12:09;;;;;;;5.13;4.10;;;;;;;;;;5069229;28;20228;-83
2022/01/17 15:14:41;;;;;;;5.00;4.50;;;;;;;;;;5057547;28;20283;-85
2022/01/17 15:17:09;;;;;;;5.07;4.20;;;;;;;;;;5057385;28;20232;-85
2022/01/17 15:19:37;;;;;;;5.17;4.00;;;;;;;;;;5060442;28;20205;-83